Time;durP1;ratioP1;P1;durP2;ratioP2;P2;SDS_P1;SDS_P2;PMS_P1;PMS_P2;Temp;Humidity;BMP_temperature;BMP_pressure;BME280_temperature;BME280_humidity;BME280_pressure;Samples;Min_cycle;Max_cycle;Signal;HPM_P1;HPM_P2
2021/04/30 00:01:02;;;;;;;7.18;6.15;;;3.30;99.90;;;;;;5060470;28;20484;-81
2021/04/30 00:03:28;;;;;;;7.63;6.35;;;3.20;99.90;;;;;;5061304;28;20079;-81
2021/04/30 00:05:54;;;;;;;12.77;6.57;;;3.20;99.90;;;;;;5059478;28;20136;-81
2021/04/30 00:08:20;;;;;;;7.35;6.57;;;3.20;99.90;;;;;;5061034;28;20511;-80
2021/04/30 00:10:46;;;;;;;8.63;7.45;;;3.20;99.90;;;;;;5059982;28;20072;-81
2021/04/30 00:13:13;;;;;;;7.07;6.32;;;3.20;99.90;;;;;;5061156;28;20095;-81
2021/04/30 00:15:39;;;;;;;7.28;6.53;;;3.20;99.90;;;;;;5057303;28;20077;-80
2021/04/30 00:18:06;;;;;;;7.18;6.47;;;3.10;99.90;;;;;;5055994;28;20068;-80
2021/04/30 00:20:34;;;;;;;8.18;7.18;;;3.10;99.90;;;;;;5055870;28;20110;-80
2021/04/30 00:23:00;;;;;;;8.20;6.93;;;3.10;99.90;;;;;;5055652;28;20106;-80
2021/04/30 00:25:27;;;;;;;8.05;6.65;;;3.10;99.90;;;;;;5055374;28;20143;-80
2021/04/30 00:27:54;;;;;;;7.00;6.30;;;3.10;99.90;;;;;;5056383;28;20052;-80
2021/04/30 00:30:21;;;;;;;6.60;5.93;;;3.10;99.90;;;;;;5055020;28;20052;-80
2021/04/30 00:32:48;;;;;;;6.82;6.22;;;3.10;99.90;;;;;;5054539;28;20168;-81
2021/04/30 00:35:14;;;;;;;7.22;6.53;;;3.00;99.90;;;;;;5060555;28;20053;-81
2021/04/30 00:37:40;;;;;;;8.10;7.30;;;2.90;99.90;;;;;;5059072;28;20069;-81
2021/04/30 00:40:10;;;;;;;7.70;7.00;;;2.80;99.90;;;;;;5058844;28;20500;-81
2021/04/30 00:42:37;;;;;;;8.18;6.60;;;2.80;99.90;;;;;;5058807;28;20128;-81
2021/04/30 00:45:16;;;;;;;8.15;7.13;;;2.60;99.90;;;;;;5060716;28;20049;-81
2021/04/30 00:47:42;;;;;;;7.25;6.63;;;2.60;99.90;;;;;;5060075;28;20053;-81
2021/04/30 00:50:10;;;;;;;8.13;7.32;;;2.60;99.90;;;;;;5059914;28;20053;-81
2021/04/30 00:52:37;;;;;;;7.47;6.45;;;2.50;99.90;;;;;;5059702;28;20087;-81
2021/04/30 00:55:08;;;;;;;10.40;7.70;;;2.40;99.90;;;;;;5062167;28;20084;-81
2021/04/30 00:57:36;;;;;;;8.32;7.47;;;2.40;99.90;;;;;;5060351;28;20045;-82
2021/04/30 01:00:10;;;;;;;8.05;7.28;;;2.30;99.90;;;;;;5061356;28;20049;-81
2021/04/30 01:02:38;;;;;;;9.30;8.40;;;2.20;99.90;;;;;;5059084;28;20049;-81
2021/04/30 01:05:06;;;;;;;12.98;8.32;;;2.20;99.90;;;;;;5059028;28;20052;-81
2021/04/30 01:07:32;;;;;;;9.50;8.50;;;2.10;99.90;;;;;;5059165;28;20085;-81
2021/04/30 01:09:59;;;;;;;10.90;8.57;;;2.10;99.90;;;;;;5058821;28;20052;-81
2021/04/30 01:12:25;;;;;;;10.65;9.23;;;2.00;99.90;;;;;;5058453;28;20075;-81
2021/04/30 01:14:52;;;;;;;10.27;8.25;;;2.00;99.90;;;;;;5058506;28;20080;-81
2021/04/30 01:17:18;;;;;;;10.88;8.70;;;1.90;99.90;;;;;;5060036;28;20071;-81
2021/04/30 01:19:44;;;;;;;11.70;9.40;;;1.80;99.90;;;;;;5058203;28;20059;-81
2021/04/30 01:22:11;;;;;;;10.57;9.35;;;1.80;99.90;;;;;;5059340;28;20080;-81
2021/04/30 01:24:37;;;;;;;12.52;9.82;;;1.80;99.90;;;;;;5058364;28;20093;-81
2021/04/30 01:27:04;;;;;;;11.88;9.52;;;1.80;99.90;;;;;;5058148;28;20110;-81
2021/04/30 01:29:30;;;;;;;17.13;10.68;;;1.90;99.90;;;;;;5059644;28;20088;-81
2021/04/30 01:31:57;;;;;;;11.63;9.82;;;1.80;99.90;;;;;;5059919;28;20084;-81
2021/04/30 01:34:23;;;;;;;11.93;9.38;;;1.90;99.90;;;;;;5060304;28;20463;-81
2021/04/30 01:36:49;;;;;;;11.57;9.88;;;1.70;99.90;;;;;;5061284;28;20049;-81
2021/04/30 01:39:16;;;;;;;13.02;10.95;;;1.60;99.90;;;;;;5066321;28;20048;-81
2021/04/30 01:41:43;;;;;;;12.05;9.50;;;1.40;99.90;;;;;;5069058;28;20103;-81
2021/04/30 01:44:11;;;;;;;13.82;10.43;;;1.30;99.90;;;;;;5058260;28;20416;-81
2021/04/30 01:46:39;;;;;;;20.42;11.82;;;1.30;99.90;;;;;;5058166;28;20053;-81
2021/04/30 01:49:07;;;;;;;13.25;10.40;;;1.20;99.90;;;;;;5057819;28;20053;-81
2021/04/30 01:51:35;;;;;;;16.33;9.50;;;1.20;99.90;;;;;;5057560;28;20472;-81
2021/04/30 01:54:05;;;;;;;14.02;10.82;;;1.10;99.90;;;;;;5057048;28;20049;-81
2021/04/30 01:56:33;;;;;;;17.10;11.38;;;1.10;99.90;;;;;;5059430;28;20049;-81
2021/04/30 01:58:59;;;;;;;18.13;11.88;;;1.10;99.90;;;;;;5057976;28;20076;-81
2021/04/30 02:01:26;;;;;;;16.92;11.90;;;1.20;99.90;;;;;;5057341;28;20095;-81
2021/04/30 02:03:58;;;;;;;16.27;12.00;;;1.20;99.90;;;;;;5056591;28;20473;-81
2021/04/30 02:06:25;;;;;;;15.60;11.67;;;1.30;99.90;;;;;;5054200;28;20092;-81
2021/04/30 02:08:53;;;;;;;16.55;11.38;;;1.20;99.90;;;;;;5058043;28;20048;-81
2021/04/30 02:11:19;;;;;;;14.40;11.20;;;1.20;99.90;;;;;;5059662;28;20049;-81
2021/04/30 02:13:45;;;;;;;16.17;10.95;;;1.20;99.90;;;;;;5059209;28;20464;-82
2021/04/30 02:16:12;;;;;;;14.20;11.55;;;1.10;99.90;;;;;;5059852;28;20069;-82
2021/04/30 02:18:38;;;;;;;15.50;12.00;;;1.00;99.90;;;;;;5055952;28;20132;-81
2021/04/30 02:21:04;;;;;;;12.90;10.07;;;0.90;99.90;;;;;;5053497;28;20140;-81
2021/04/30 02:23:31;;;;;;;17.35;11.38;;;0.70;99.90;;;;;;5056787;28;20080;-81
2021/04/30 02:25:57;;;;;;;14.90;12.27;;;0.70;99.90;;;;;;5056912;28;20079;-81
2021/04/30 02:28:23;;;;;;;17.30;12.35;;;0.80;99.90;;;;;;5057278;28;20099;-81
2021/04/30 02:30:50;;;;;;;22.45;11.98;;;0.80;99.90;;;;;;5058735;28;20076;-80
2021/04/30 02:33:16;;;;;;;16.05;12.57;;;0.90;99.90;;;;;;5058012;28;20113;-81
2021/04/30 02:35:48;;;;;;;18.70;14.02;;;0.90;99.90;;;;;;5056229;28;20044;-80
2021/04/30 02:38:18;;;;;;;16.30;12.32;;;1.00;99.90;;;;;;5057258;28;20053;-80
2021/04/30 02:40:48;;;;;;;19.48;13.35;;;1.00;99.90;;;;;;5056247;28;20052;-80
2021/04/30 02:43:19;;;;;;;16.25;12.63;;;1.00;99.90;;;;;;5057032;28;20134;-81
2021/04/30 02:45:51;;;;;;;21.23;14.60;;;1.00;99.90;;;;;;5057488;28;20463;-79
2021/04/30 02:48:39;;;;;;;19.30;13.65;;;1.00;99.90;;;;;;5056413;28;20048;-80
2021/04/30 02:51:08;;;;;;;20.75;13.38;;;1.00;99.90;;;;;;5057567;28;20442;-80
2021/04/30 02:53:35;;;;;;;19.83;14.57;;;1.00;99.90;;;;;;5056641;28;20102;-81
2021/04/30 02:56:01;;;;;;;29.35;14.98;;;1.00;99.90;;;;;;5057696;28;20083;-81
2021/04/30 02:58:27;;;;;;;21.38;14.68;;;1.00;99.90;;;;;;5055968;28;20087;-81
2021/04/30 03:00:54;;;;;;;20.23;14.43;;;1.00;99.90;;;;;;5057853;28;20049;-81
2021/04/30 03:03:20;;;;;;;23.70;15.05;;;1.10;99.90;;;;;;5057694;28;20084;-81
2021/04/30 03:05:46;;;;;;;21.63;14.98;;;1.10;99.90;;;;;;5058098;28;20420;-81
2021/04/30 03:08:13;;;;;;;25.80;15.70;;;1.10;99.90;;;;;;5056155;28;20068;-81
2021/04/30 03:10:39;;;;;;;22.33;15.75;;;1.20;99.90;;;;;;5056109;28;20077;-81
2021/04/30 03:13:06;;;;;;;19.70;15.20;;;1.20;99.90;;;;;;5057018;28;20048;-81
2021/04/30 03:15:32;;;;;;;18.95;13.80;;;1.20;99.90;;;;;;5056272;28;20053;-81
2021/04/30 03:17:58;;;;;;;20.35;14.48;;;1.30;99.90;;;;;;5058333;28;20102;-81
2021/04/30 03:20:25;;;;;;;22.92;15.75;;;1.20;99.90;;;;;;5057074;28;20103;-81
2021/04/30 03:22:51;;;;;;;20.58;15.02;;;1.20;99.90;;;;;;5057083;28;20049;-81
2021/04/30 03:25:18;;;;;;;19.65;15.07;;;1.20;99.90;;;;;;5057613;28;20087;-81
2021/04/30 03:27:45;;;;;;;19.52;14.88;;;1.20;99.90;;;;;;5057103;28;20084;-81
2021/04/30 03:30:12;;;;;;;18.60;14.85;;;1.30;99.90;;;;;;5058732;28;20048;-81
2021/04/30 03:32:39;;;;;;;21.85;14.90;;;1.30;99.90;;;;;;5058284;28;20057;-81
2021/04/30 03:35:06;;;;;;;19.38;15.20;;;1.30;99.90;;;;;;5057970;28;20479;-81
2021/04/30 03:37:33;;;;;;;31.55;16.30;;;1.30;99.90;;;;;;5058760;28;20109;-80
2021/04/30 03:39:59;;;;;;;21.17;15.52;;;1.40;99.90;;;;;;5057348;28;20060;-81
2021/04/30 03:42:26;;;;;;;25.13;16.65;;;1.40;99.90;;;;;;5057447;28;20081;-81
2021/04/30 03:44:52;;;;;;;23.52;15.95;;;1.40;99.90;;;;;;5058974;28;20045;-81
2021/04/30 03:47:18;;;;;;;21.25;15.85;;;1.40;99.90;;;;;;5062504;28;20053;-81
2021/04/30 03:49:45;;;;;;;21.73;15.50;;;1.40;99.90;;;;;;5062836;28;20052;-82
2021/04/30 03:52:11;;;;;;;23.25;16.05;;;1.40;99.90;;;;;;5060308;28;20045;-81
2021/04/30 03:54:38;;;;;;;24.65;16.08;;;1.40;99.90;;;;;;5057642;28;20051;-82
2021/04/30 03:57:04;;;;;;;23.35;14.18;;;1.40;99.90;;;;;;5057773;28;20052;-81
2021/04/30 03:59:30;;;;;;;22.40;14.10;;;1.30;99.90;;;;;;5059789;28;20075;-81
2021/04/30 04:01:57;;;;;;;28.50;15.25;;;1.20;99.90;;;;;;5059069;28;20133;-81
2021/04/30 04:04:24;;;;;;;33.05;17.13;;;0.90;99.90;;;;;;5057328;28;20053;-80
2021/04/30 04:06:51;;;;;;;26.58;15.50;;;0.80;99.90;;;;;;5051685;28;20099;-81
2021/04/30 04:09:17;;;;;;;24.23;14.90;;;0.70;99.90;;;;;;5051499;28;20515;-81
2021/04/30 04:11:44;;;;;;;30.27;15.00;;;0.60;99.90;;;;;;5055244;28;20073;-81
2021/04/30 04:14:10;;;;;;;28.80;15.82;;;0.60;99.90;;;;;;5056864;28;20064;-81
2021/04/30 04:16:37;;;;;;;33.83;16.85;;;0.60;99.90;;;;;;5055642;28;20076;-81
2021/04/30 04:19:03;;;;;;;29.35;16.92;;;0.70;99.90;;;;;;5055351;28;20050;-81
2021/04/30 04:21:29;;;;;;;31.92;18.50;;;0.70;99.90;;;;;;5055109;28;20348;-81
2021/04/30 04:23:56;;;;;;;25.85;17.45;;;0.80;99.90;;;;;;5054306;28;20408;-81
2021/04/30 04:26:22;;;;;;;32.83;17.88;;;0.80;99.90;;;;;;5056088;28;20068;-82
2021/04/30 04:28:48;;;;;;;28.80;16.92;;;0.80;99.90;;;;;;5056964;28;20099;-82
2021/04/30 04:31:15;;;;;;;27.38;16.60;;;0.70;99.90;;;;;;5055638;28;20049;-81
2021/04/30 04:33:41;;;;;;;25.27;16.58;;;0.60;99.90;;;;;;5056760;28;20073;-81
2021/04/30 04:36:08;;;;;;;25.60;16.35;;;0.50;99.90;;;;;;5055691;28;20132;-81
2021/04/30 04:38:34;;;;;;;27.67;17.35;;;0.40;99.90;;;;;;5056663;28;20049;-81
2021/04/30 04:41:00;;;;;;;33.28;18.30;;;0.40;99.90;;;;;;5057107;28;20056;-82
2021/04/30 04:43:26;;;;;;;34.90;19.33;;;0.50;99.90;;;;;;5058117;28;20049;-81
2021/04/30 04:45:53;;;;;;;27.35;18.52;;;0.50;99.90;;;;;;5061075;28;20095;-81
2021/04/30 04:48:19;;;;;;;30.05;18.75;;;0.40;99.90;;;;;;5061155;28;20481;-82
2021/04/30 04:50:45;;;;;;;41.70;21.83;;;0.40;99.90;;;;;;5061097;28;20052;-82
2021/04/30 04:53:23;;;;;;;49.55;25.60;;;0.40;99.90;;;;;;5061742;28;20412;-82
2021/04/30 04:56:09;;;;;;;40.42;24.75;;;0.60;99.90;;;;;;5058863;28;20052;-81
2021/04/30 04:58:36;;;;;;;40.03;23.50;;;0.80;99.90;;;;;;5060009;28;20462;-81
2021/04/30 05:01:02;;;;;;;36.97;23.13;;;1.00;99.90;;;;;;5059147;28;20049;-81
2021/04/30 05:03:28;;;;;;;40.90;22.55;;;1.10;99.90;;;;;;5059769;28;20106;-81
2021/04/30 05:05:55;;;;;;;34.88;23.13;;;1.20;99.90;;;;;;5058298;28;20117;-82
2021/04/30 05:08:21;;;;;;;29.92;21.42;;;1.30;99.90;;;;;;5059398;28;20053;-81
2021/04/30 05:10:47;;;;;;;38.78;22.90;;;1.50;99.90;;;;;;5059611;28;20084;-81
2021/04/30 05:13:14;;;;;;;43.60;25.35;;;1.60;99.90;;;;;;5059560;28;20094;-81
2021/04/30 05:15:49;;;;;;;57.72;25.90;;;1.80;99.90;;;;;;5057971;28;20432;-81
2021/04/30 05:18:15;;;;;;;60.58;23.08;;;2.10;99.90;;;;;;5059083;28;20060;-81
2021/04/30 05:20:42;;;;;;;30.45;17.65;;;2.30;99.90;;;;;;5060248;28;20135;-81
2021/04/30 05:23:08;;;;;;;27.23;19.65;;;2.40;99.90;;;;;;5059884;28;20053;-81
2021/04/30 05:25:35;;;;;;;26.08;18.90;;;2.60;99.90;;;;;;5059001;28;20539;-81
2021/04/30 05:28:01;;;;;;;23.00;15.20;;;2.80;99.90;;;;;;5059398;28;20090;-81
2021/04/30 05:30:27;;;;;;;37.83;15.20;;;3.00;99.90;;;;;;5058884;28;20099;-81
2021/04/30 05:32:53;;;;;;;23.23;14.50;;;3.10;99.90;;;;;;5058335;28;20467;-81
2021/04/30 05:35:20;;;;;;;24.92;12.88;;;3.20;99.90;;;;;;5057382;28;20052;-80
2021/04/30 05:37:47;;;;;;;15.60;11.30;;;3.30;99.90;;;;;;5057695;28;20045;-80
2021/04/30 05:40:13;;;;;;;21.27;11.88;;;3.30;99.90;;;;;;5058217;28;20070;-80
2021/04/30 05:42:41;;;;;;;16.48;11.50;;;3.30;99.90;;;;;;5055962;28;20073;-80
2021/04/30 05:45:09;;;;;;;18.60;11.25;;;3.40;99.90;;;;;;5055426;28;20419;-80
2021/04/30 05:47:36;;;;;;;14.43;11.63;;;3.60;99.90;;;;;;5056571;28;20051;-81
2021/04/30 05:50:03;;;;;;;12.50;9.88;;;3.70;99.90;;;;;;5055153;28;20079;-81
2021/04/30 05:52:30;;;;;;;13.35;10.75;;;3.90;99.90;;;;;;5055208;28;20044;-81
2021/04/30 05:54:56;;;;;;;14.88;11.32;;;4.00;99.90;;;;;;5053411;28;20479;-81
2021/04/30 05:57:22;;;;;;;17.50;11.35;;;4.00;99.90;;;;;;5053930;28;20053;-81
2021/04/30 05:59:49;;;;;;;15.65;10.05;;;4.10;99.90;;;;;;5055130;28;20045;-81
2021/04/30 06:02:15;;;;;;;12.98;10.00;;;4.10;99.90;;;;;;5058126;28;20049;-81
2021/04/30 06:04:41;;;;;;;13.40;10.70;;;4.10;99.90;;;;;;5058852;28;20048;-81
2021/04/30 06:07:08;;;;;;;16.15;11.98;;;4.30;99.90;;;;;;5060093;28;20059;-82
2021/04/30 06:09:34;;;;;;;26.05;14.90;;;4.70;99.90;;;;;;5060094;28;20052;-82
2021/04/30 06:12:00;;;;;;;19.08;11.50;;;5.20;99.90;;;;;;5061127;28;20053;-82
2021/04/30 06:14:30;;;;;;;15.10;10.25;;;5.50;99.90;;;;;;5058252;28;20124;-82
2021/04/30 06:16:57;;;;;;;13.55;10.07;;;6.10;99.90;;;;;;5059612;28;20045;-81
2021/04/30 06:19:23;;;;;;;17.63;10.90;;;6.80;99.90;;;;;;5058099;28;20045;-82
2021/04/30 06:21:50;;;;;;;20.30;11.13;;;6.90;99.90;;;;;;5062161;28;20085;-81
2021/04/30 06:24:16;;;;;;;21.73;11.13;;;7.50;99.90;;;;;;5063917;28;20056;-81
2021/04/30 06:26:43;;;;;;;28.98;15.02;;;7.80;99.90;;;;;;5061202;28;20053;-81
2021/04/30 06:29:09;;;;;;;37.55;18.98;;;8.30;99.90;;;;;;5058400;28;20517;-81
2021/04/30 06:31:37;;;;;;;32.88;15.07;;;8.80;99.90;;;;;;5064447;28;20079;-80
2021/04/30 06:34:04;;;;;;;21.00;11.45;;;9.10;99.90;;;;;;5065390;28;20071;-81
2021/04/30 06:36:31;;;;;;;13.57;9.70;;;9.70;99.90;;;;;;5068193;28;20120;-81
2021/04/30 06:38:57;;;;;;;11.52;7.97;;;10.60;99.90;;;;;;5076921;28;20076;-82
2021/04/30 06:41:23;;;;;;;13.20;8.90;;;10.30;99.90;;;;;;5078859;28;20076;-82
2021/04/30 06:43:50;;;;;;;10.98;7.53;;;10.20;99.90;;;;;;5078871;28;20087;-81
2021/04/30 06:46:16;;;;;;;10.80;6.97;;;10.40;99.90;;;;;;5076965;28;20418;-81
2021/04/30 06:48:54;;;;;;;8.25;6.47;;;10.90;99.90;;;;;;5078700;28;20110;-82
2021/04/30 06:51:20;;;;;;;10.88;7.57;;;11.20;99.90;;;;;;5077606;28;20076;-81
2021/04/30 06:53:48;;;;;;;9.43;7.47;;;11.40;99.90;;;;;;5077260;28;20075;-82
2021/04/30 06:56:14;;;;;;;15.80;8.02;;;12.10;99.90;;;;;;5077136;28;20110;-81
2021/04/30 06:58:40;;;;;;;20.38;8.23;;;12.40;99.90;;;;;;5078501;28;20079;-82
2021/04/30 07:01:09;;;;;;;28.60;8.35;;;12.90;99.90;;;;;;5076682;28;20071;-81
2021/04/30 07:03:37;;;;;;;28.85;7.45;;;14.10;99.90;;;;;;5078261;28;20106;-81
2021/04/30 07:06:03;;;;;;;19.63;6.60;;;14.60;99.90;;;;;;5076562;28;20507;-82
2021/04/30 07:08:30;;;;;;;22.15;6.53;;;16.40;97.00;;;;;;5070353;28;20079;-82
2021/04/30 07:10:56;;;;;;;17.83;6.75;;;18.30;82.30;;;;;;5065821;28;20052;-82
2021/04/30 07:13:22;;;;;;;14.18;6.20;;;19.20;74.80;;;;;;5066013;28;20044;-82
2021/04/30 07:15:48;;;;;;;11.05;5.55;;;18.80;71.80;;;;;;5067735;28;20127;-82
2021/04/30 07:18:15;;;;;;;9.18;5.07;;;18.30;72.70;;;;;;5066263;28;20068;-82
2021/04/30 07:20:41;;;;;;;7.93;4.57;;;18.70;70.20;;;;;;5069104;28;20047;-82
2021/04/30 07:23:08;;;;;;;8.82;4.50;;;19.90;70.30;;;;;;5066456;28;20488;-82
2021/04/30 07:25:34;;;;;;;6.93;5.03;;;19.80;67.40;;;;;;5072249;28;20044;-82
2021/04/30 07:28:00;;;;;;;14.80;6.30;;;20.00;66.90;;;;;;5078549;28;20055;-83
2021/04/30 07:30:27;;;;;;;8.05;6.07;;;20.90;62.10;;;;;;5076959;28;20132;-81
2021/04/30 07:32:53;;;;;;;6.95;5.35;;;21.00;61.60;;;;;;5076420;28;20062;-82
2021/04/30 07:35:39;;;;;;;5.63;5.20;;;21.90;58.00;;;;;;5077509;28;20044;-82
2021/04/30 07:38:07;;;;;;;7.68;5.47;;;21.80;55.80;;;;;;5076425;28;20419;-82
2021/04/30 07:40:33;;;;;;;5.95;5.32;;;20.80;58.30;;;;;;5076589;28;20485;-82
2021/04/30 07:43:00;;;;;;;11.82;6.45;;;22.40;56.00;;;;;;5076779;28;20134;-82
2021/04/30 07:45:26;;;;;;;6.10;5.47;;;21.90;58.10;;;;;;5076197;28;20059;-82
2021/04/30 07:47:53;;;;;;;6.85;5.40;;;21.30;55.90;;;;;;5073830;28;20049;-81
2021/04/30 07:50:21;;;;;;;5.95;5.53;;;20.80;56.20;;;;;;5081016;28;20053;-81
2021/04/30 07:52:47;;;;;;;5.47;4.97;;;20.00;58.30;;;;;;5083387;28;20056;-82
2021/04/30 07:55:13;;;;;;;4.80;4.30;;;19.70;59.50;;;;;;5077473;28;20452;-82
2021/04/30 07:57:40;;;;;;;8.13;4.65;;;20.30;58.90;;;;;;5076776;28;20060;-85
2021/04/30 08:00:07;;;;;;;4.15;3.85;;;21.30;58.10;;;;;;5076514;28;20045;-85
2021/04/30 08:02:33;;;;;;;6.38;3.95;;;25.20;55.30;;;;;;5077297;28;20126;-84
2021/04/30 08:05:00;;;;;;;3.78;3.58;;;26.00;52.30;;;;;;5076352;28;20049;-84
2021/04/30 08:07:26;;;;;;;7.05;4.40;;;26.20;48.50;;;;;;5076860;28;20048;-85
2021/04/30 08:09:54;;;;;;;3.95;3.65;;;25.60;50.10;;;;;;5078507;28;20044;-84
2021/04/30 08:12:22;;;;;;;4.22;3.83;;;26.30;49.20;;;;;;5076853;28;20053;-84
2021/04/30 08:14:48;;;;;;;5.05;4.68;;;24.90;47.80;;;;;;5078635;28;20048;-85
2021/04/30 08:17:15;;;;;;;7.38;5.55;;;22.30;49.40;;;;;;5077194;28;20114;-84
2021/04/30 08:19:41;;;;;;;7.68;5.47;;;20.70;53.60;;;;;;5079822;28;20048;-85
2021/04/30 08:22:08;;;;;;;6.70;5.63;;;19.50;56.60;;;;;;5081412;28;20469;-84
2021/04/30 08:24:35;;;;;;;5.97;5.38;;;18.10;58.70;;;;;;5079740;28;20397;-85
2021/04/30 08:27:02;;;;;;;6.68;5.90;;;17.60;62.70;;;;;;5080117;28;20135;-85
2021/04/30 08:29:28;;;;;;;8.35;5.63;;;17.00;64.20;;;;;;5081080;28;20071;-83
2021/04/30 08:31:55;;;;;;;6.32;5.72;;;16.70;68.00;;;;;;5081415;28;20053;-84
2021/04/30 08:34:22;;;;;;;6.45;5.65;;;17.10;66.30;;;;;;5080986;28;20070;-84
2021/04/30 08:37:09;;;;;;;5.45;5.05;;;17.90;66.20;;;;;;5081794;28;20045;-85
2021/04/30 08:39:35;;;;;;;6.75;5.25;;;17.70;65.50;;;;;;5081617;28;20101;-84
2021/04/30 08:42:02;;;;;;;5.07;4.68;;;17.20;67.40;;;;;;5085234;28;20049;-84
2021/04/30 08:44:29;;;;;;;5.97;5.40;;;17.20;68.30;;;;;;5079485;28;20072;-83
2021/04/30 08:46:55;;;;;;;6.47;5.65;;;16.60;69.50;;;;;;5068589;28;20053;-85
2021/04/30 08:49:22;;;;;;;13.60;5.90;;;16.20;72.10;;;;;;5060794;28;20040;-84
2021/04/30 08:51:49;;;;;;;6.80;5.72;;;16.60;72.80;;;;;;5059125;28;20045;-83
2021/04/30 08:54:16;;;;;;;6.20;5.60;;;17.20;70.60;;;;;;5060448;28;20056;-84
2021/04/30 08:56:46;;;;;;;6.30;5.70;;;17.50;68.90;;;;;;5061800;28;20037;-85
2021/04/30 08:59:13;;;;;;;7.55;5.45;;;16.70;68.80;;;;;;5069622;28;20044;-83
2021/04/30 09:01:42;;;;;;;6.57;5.97;;;16.20;74.40;;;;;;5058304;28;20460;-81
2021/04/30 09:04:09;;;;;;;7.97;5.82;;;15.70;77.60;;;;;;5057730;28;20075;-81
2021/04/30 09:06:38;;;;;;;5.82;5.32;;;15.60;78.80;;;;;;5058419;28;20075;-82
2021/04/30 09:09:08;;;;;;;6.57;5.95;;;15.60;80.00;;;;;;5058389;28;20102;-81
2021/04/30 09:11:39;;;;;;;7.10;6.40;;;15.40;79.60;;;;;;5066073;28;20065;-81
2021/04/30 09:14:32;;;;;;;6.97;6.28;;;15.20;86.20;;;;;;5058842;28;20440;-81
2021/04/30 09:17:15;;;;;;;6.95;5.90;;;15.40;87.00;;;;;;5058657;28;20068;-82
2021/04/30 09:19:55;;;;;;;8.70;6.88;;;15.50;89.00;;;;;;5061356;28;20045;-82
2021/04/30 09:22:25;;;;;;;10.82;6.28;;;15.50;86.60;;;;;;5058301;28;20497;-81
2021/04/30 09:24:57;;;;;;;6.53;5.85;;;15.00;89.00;;;;;;5059409;28;20049;-82
2021/04/30 09:27:43;;;;;;;8.35;6.45;;;14.90;89.80;;;;;;5059735;28;20045;-81
2021/04/30 09:30:33;;;;;;;10.50;7.40;;;15.00;89.90;;;;;;5060632;28;20081;-82
2021/04/30 09:33:17;;;;;;;8.85;6.70;;;15.00;91.30;;;;;;5059062;28;20488;-81
2021/04/30 09:35:52;;;;;;;8.60;6.55;;;15.30;88.80;;;;;;5060062;28;20056;-82
2021/04/30 09:38:34;;;;;;;8.25;5.82;;;15.50;90.30;;;;;;5070880;28;20048;-81
2021/04/30 09:41:00;;;;;;;9.05;6.50;;;15.80;90.60;;;;;;5058370;28;20048;-81
2021/04/30 09:43:45;;;;;;;6.28;5.68;;;16.20;87.40;;;;;;5068847;28;20053;-81
2021/04/30 09:46:45;;;;;;;6.82;6.20;;;17.50;79.50;;;;;;5060253;28;20068;-81
2021/04/30 09:49:15;;;;;;;6.13;5.63;;;17.70;76.50;;;;;;5071621;28;20087;-84
2021/04/30 09:51:50;;;;;;;6.93;5.82;;;18.20;72.90;;;;;;5075078;28;20535;-85
2021/04/30 09:54:26;;;;;;;6.13;5.53;;;18.10;70.10;;;;;;5067869;28;20467;-82
2021/04/30 09:57:16;;;;;;;5.80;5.20;;;18.50;70.50;;;;;;5066098;28;20095;-83
2021/04/30 09:59:53;;;;;;;25.20;7.05;;;17.60;71.10;;;;;;5068742;28;20516;-84
2021/04/30 10:02:23;;;;;;;27.27;7.05;;;17.60;71.10;;;;;;5067586;28;20098;-83
2021/04/30 10:04:55;;;;;;;9.48;6.00;;;18.20;70.90;;;;;;5066876;28;20067;-82
2021/04/30 10:07:26;;;;;;;7.00;6.30;;;17.60;70.60;;;;;;5066865;28;20080;-82
2021/04/30 10:10:08;;;;;;;5.85;5.28;;;16.60;73.30;;;;;;5067340;28;20049;-84
2021/04/30 10:12:52;;;;;;;6.15;5.65;;;16.60;76.80;;;;;;5066278;28;20052;-83
2021/04/30 10:15:23;;;;;;;6.50;5.82;;;16.70;75.90;;;;;;5071156;28;20049;-83
2021/04/30 10:18:00;;;;;;;6.70;5.97;;;16.70;74.50;;;;;;5069252;28;20083;-83
2021/04/30 10:20:27;;;;;;;7.88;7.05;;;16.40;76.40;;;;;;5065948;28;20055;-85
2021/04/30 10:22:55;;;;;;;6.57;5.88;;;15.80;77.20;;;;;;5066208;28;20049;-84
2021/04/30 10:25:22;;;;;;;6.35;5.85;;;15.70;79.50;;;;;;5065942;28;20056;-85
2021/04/30 10:27:52;;;;;;;7.80;6.03;;;15.60;79.90;;;;;;5066553;28;20045;-84
2021/04/30 10:30:36;;;;;;;6.63;6.13;;;16.40;80.70;;;;;;5064153;28;20052;-84
2021/04/30 10:33:34;;;;;;;6.68;6.03;;;16.70;80.70;;;;;;5062071;28;20056;-84
2021/04/30 10:36:17;;;;;;;6.15;5.60;;;17.40;78.70;;;;;;5068006;28;20045;-84
2021/04/30 10:38:47;;;;;;;5.93;5.43;;;17.90;74.30;;;;;;5071874;28;20041;-85
2021/04/30 10:41:30;;;;;;;6.00;5.50;;;18.00;71.50;;;;;;5070830;28;20051;-83
2021/04/30 10:44:21;;;;;;;18.10;6.95;;;17.70;71.00;;;;;;5079549;28;20139;-85
2021/04/30 10:47:12;;;;;;;5.25;4.85;;;18.40;69.00;;;;;;5087375;28;20083;-82
2021/04/30 10:49:44;;;;;;;5.60;5.07;;;18.70;70.30;;;;;;5113294;28;20072;-84
2021/04/30 10:52:24;;;;;;;5.45;4.95;;;18.20;67.70;;;;;;5094586;28;20105;-83
2021/04/30 10:55:04;;;;;;;6.03;4.57;;;18.70;69.90;;;;;;5092801;28;20423;-83
2021/04/30 10:57:52;;;;;;;4.70;4.30;;;20.10;71.00;;;;;;5083329;28;20104;-84
2021/04/30 11:00:43;;;;;;;4.63;4.22;;;20.80;63.70;;;;;;5081728;28;20186;-81
2021/04/30 11:03:18;;;;;;;6.70;4.30;;;21.50;59.20;;;;;;5082835;28;20119;-83
2021/04/30 11:06:04;;;;;;;5.30;4.80;;;21.60;60.30;;;;;;5085250;28;20048;-84
2021/04/30 11:08:54;;;;;;;6.40;4.95;;;21.70;57.30;;;;;;5114575;27;20079;-84
2021/04/30 11:11:33;;;;;;;7.45;5.45;;;20.70;59.80;;;;;;5102400;28;20047;-83
2021/04/30 11:14:18;;;;;;;4.95;4.55;;;20.90;61.60;;;;;;5107126;28;20047;-84
2021/04/30 11:16:53;;;;;;;5.10;4.70;;;20.30;59.90;;;;;;5100391;28;20109;-79
2021/04/30 11:19:26;;;;;;;5.13;4.38;;;19.30;61.70;;;;;;5109272;28;20039;-80
2021/04/30 11:21:55;;;;;;;6.82;4.63;;;19.20;63.40;;;;;;5117342;28;20475;-80
2021/04/30 11:24:57;;;;;;;13.00;5.55;;;19.30;64.20;;;;;;5099613;28;20047;-79
2021/04/30 11:27:23;;;;;;;9.63;4.85;;;19.70;62.20;;;;;;5100001;28;20047;-80
2021/04/30 11:29:51;;;;;;;7.25;5.43;;;20.10;62.60;;;;;;5099205;28;20051;-80
2021/04/30 11:32:28;;;;;;;9.68;4.63;;;20.00;62.20;;;;;;5099612;28;20052;-79
2021/04/30 11:35:00;;;;;;;5.45;4.88;;;20.20;61.50;;;;;;5121653;28;20055;-79
2021/04/30 11:37:28;;;;;;;9.98;9.00;;;19.80;61.20;;;;;;5090870;28;20500;-78
2021/04/30 11:40:13;;;;;;;6.40;5.28;;;18.00;64.40;;;;;;5037359;28;20046;-79
2021/04/30 11:43:03;;;;;;;5.60;5.10;;;18.40;65.70;;;;;;5035783;28;20056;-79
2021/04/30 11:45:30;;;;;;;9.27;7.35;;;18.30;65.90;;;;;;5016038;28;20053;-79
2021/04/30 11:47:58;;;;;;;5.63;5.13;;;17.80;67.20;;;;;;5018848;28;20049;-79
2021/04/30 11:50:27;;;;;;;6.82;6.20;;;17.80;64.70;;;;;;5020676;28;20049;-79
2021/04/30 11:52:54;;;;;;;9.13;5.68;;;17.60;65.70;;;;;;5020395;28;20111;-80
2021/04/30 11:55:30;;;;;;;8.30;5.80;;;17.40;67.00;;;;;;5039043;28;20046;-79
2021/04/30 11:58:00;;;;;;;7.00;5.00;;;17.10;66.80;;;;;;5056238;28;20051;-79
2021/04/30 12:00:29;;;;;;;5.70;5.00;;;17.10;68.30;;;;;;5102299;28;20044;-80
2021/04/30 12:03:06;;;;;;;107.70;60.55;;;16.90;67.70;;;;;;5102534;28;20069;-79
2021/04/30 12:05:33;;;;;;;10.13;7.90;;;17.00;70.60;;;;;;5102985;28;20048;-79
2021/04/30 12:08:02;;;;;;;5.25;4.68;;;17.20;71.20;;;;;;5101456;28;20486;-79
2021/04/30 12:10:32;;;;;;;41.83;25.88;;;17.60;69.90;;;;;;5102078;28;20083;-79
2021/04/30 12:13:01;;;;;;;37.47;22.08;;;16.90;68.80;;;;;;5119747;28;20055;-79
2021/04/30 12:15:34;;;;;;;12.93;9.18;;;16.50;70.70;;;;;;5106166;28;20040;-79
2021/04/30 12:18:04;;;;;;;4.40;4.07;;;16.10;71.40;;;;;;5110615;28;20044;-79
2021/04/30 12:20:37;;;;;;;11.68;10.18;;;16.20;72.20;;;;;;5056600;28;20047;-79
2021/04/30 12:23:14;;;;;;;6.65;6.05;;;15.90;74.30;;;;;;5111733;28;20055;-79
2021/04/30 12:26:02;;;;;;;5.30;4.90;;;16.30;75.00;;;;;;5127322;28;20079;-79
2021/04/30 12:28:38;;;;;;;4.53;4.15;;;16.50;74.40;;;;;;5109176;28;20514;-79
2021/04/30 12:31:11;;;;;;;4.45;3.90;;;16.60;71.50;;;;;;5086066;28;20055;-79
2021/04/30 12:33:38;;;;;;;4.47;4.07;;;16.90;73.20;;;;;;5119099;28;20050;-79
2021/04/30 12:36:09;;;;;;;4.25;3.83;;;16.80;71.20;;;;;;5120989;28;20043;-79
2021/04/30 12:38:37;;;;;;;7.45;4.85;;;16.70;74.70;;;;;;5100684;28;20044;-79
2021/04/30 12:41:07;;;;;;;5.03;4.70;;;16.20;75.00;;;;;;5100165;28;20454;-79
2021/04/30 12:43:35;;;;;;;4.32;4.03;;;16.00;73.70;;;;;;5117923;28;20464;-79
2021/04/30 12:46:17;;;;;;;4.50;4.10;;;16.40;76.10;;;;;;5119374;28;20051;-79
2021/04/30 12:48:46;;;;;;;5.03;3.70;;;16.70;74.10;;;;;;5118397;28;20051;-80
2021/04/30 12:51:31;;;;;;;10.95;5.22;;;17.20;74.30;;;;;;5113500;27;20399;-79
2021/04/30 12:53:58;;;;;;;4.60;4.20;;;16.90;72.40;;;;;;5118680;27;20079;-78
2021/04/30 12:56:32;;;;;;;5.43;4.78;;;16.10;75.50;;;;;;5118993;28;20108;-80